Time;durP1;ratioP1;P1;durP2;ratioP2;P2;SDS_P1;SDS_P2;PMS_P1;PMS_P2;Temp;Humidity;BMP_temperature;BMP_pressure;BME280_temperature;BME280_humidity;BME280_pressure;Samples;Min_cycle;Max_cycle;Signal;HPM_P1;HPM_P2
2023/07/22 00:02:22;;;;;;;4.03;3.20;;;20.30;79.90;;;;;;5096572;28;20467;-80
2023/07/22 00:04:48;;;;;;;3.67;3.08;;;20.30;79.60;;;;;;5115160;28;20169;-80
2023/07/22 00:07:14;;;;;;;4.18;3.70;;;20.20;79.60;;;;;;5114524;28;20085;-80
2023/07/22 00:09:43;;;;;;;4.38;3.10;;;20.20;79.80;;;;;;5114563;28;20028;-80
2023/07/22 00:12:09;;;;;;;3.40;3.10;;;20.20;80.10;;;;;;5115243;28;20368;-80
2023/07/22 00:14:38;;;;;;;4.57;2.83;;;20.20;80.10;;;;;;5096841;28;20028;-80
2023/07/22 00:17:04;;;;;;;3.75;3.00;;;20.20;80.20;;;;;;5114900;28;20468;-80
2023/07/22 00:19:30;;;;;;;3.00;2.70;;;20.20;80.10;;;;;;5096587;28;20067;-78
2023/07/22 00:21:56;;;;;;;2.72;2.35;;;20.20;80.10;;;;;;5096110;28;20055;-80
2023/07/22 00:24:22;;;;;;;3.83;3.10;;;20.20;80.20;;;;;;5096442;28;20371;-80
2023/07/22 00:26:49;;;;;;;2.92;2.63;;;20.30;80.20;;;;;;5114583;28;20035;-80
2023/07/22 00:29:16;;;;;;;3.03;2.72;;;20.30;80.10;;;;;;5114408;28;20036;-80
2023/07/22 00:31:42;;;;;;;2.90;2.47;;;20.40;80.00;;;;;;5096478;28;20372;-80
2023/07/22 00:34:08;;;;;;;3.30;3.00;;;20.30;79.90;;;;;;5114238;28;20032;-80
2023/07/22 00:36:34;;;;;;;3.47;2.95;;;20.40;80.00;;;;;;5079873;28;20031;-80
2023/07/22 00:39:01;;;;;;;2.88;2.60;;;20.40;79.90;;;;;;5113932;28;20038;-80
2023/07/22 00:41:27;;;;;;;2.80;2.53;;;20.50;79.90;;;;;;5079882;28;20371;-81
2023/07/22 00:43:52;;;;;;;3.65;2.95;;;20.50;79.80;;;;;;5095781;28;20038;-81
2023/07/22 00:46:18;;;;;;;2.95;2.65;;;20.50;79.70;;;;;;5095965;28;20027;-81
2023/07/22 00:48:45;;;;;;;3.60;2.60;;;20.50;79.60;;;;;;5114450;28;20048;-80
2023/07/22 00:51:10;;;;;;;3.92;2.95;;;20.50;79.60;;;;;;5113499;28;20122;-81
2023/07/22 00:53:36;;;;;;;3.50;2.78;;;20.50;79.60;;;;;;5096001;28;20484;-81
2023/07/22 00:56:02;;;;;;;4.28;2.35;;;20.50;79.60;;;;;;5095537;28;20030;-80
2023/07/22 00:58:28;;;;;;;3.30;3.00;;;20.60;79.60;;;;;;5113635;28;20062;-80
2023/07/22 01:00:54;;;;;;;2.60;2.30;;;20.50;79.60;;;;;;5113470;28;20028;-80
2023/07/22 01:03:19;;;;;;;3.75;3.20;;;20.60;79.60;;;;;;5113758;28;20032;-80
2023/07/22 01:05:47;;;;;;;3.10;2.35;;;20.60;79.50;;;;;;5114055;28;20051;-80
2023/07/22 01:08:13;;;;;;;2.83;2.53;;;20.60;79.40;;;;;;5113575;28;20439;-80
2023/07/22 01:10:39;;;;;;;3.35;3.05;;;20.60;79.50;;;;;;5113705;28;20072;-79
2023/07/22 01:13:05;;;;;;;3.10;2.80;;;20.60;79.40;;;;;;5095692;28;20124;-79
2023/07/22 01:15:31;;;;;;;3.33;3.03;;;20.60;79.30;;;;;;5095540;28;20135;-79
2023/07/22 01:18:01;;;;;;;3.45;2.70;;;20.60;79.30;;;;;;5113764;28;20527;-80
2023/07/22 01:20:28;;;;;;;3.70;2.95;;;20.60;79.30;;;;;;5113216;28;20034;-80
2023/07/22 01:22:55;;;;;;;3.63;3.22;;;20.60;79.40;;;;;;5113248;28;20034;-80
2023/07/22 01:25:22;;;;;;;3.33;3.00;;;20.60;79.30;;;;;;5113564;28;20054;-81
2023/07/22 01:27:49;;;;;;;4.45;3.53;;;20.60;79.90;;;;;;5095223;28;20039;-80
2023/07/22 01:30:14;;;;;;;3.22;2.92;;;20.70;79.40;;;;;;5113132;28;20084;-80
2023/07/22 01:32:40;;;;;;;3.83;3.10;;;20.70;79.30;;;;;;5095195;28;20032;-80
2023/07/22 01:35:10;;;;;;;3.50;3.20;;;20.70;79.30;;;;;;5113510;28;20075;-79
2023/07/22 01:37:36;;;;;;;4.28;3.85;;;20.70;79.30;;;;;;5095751;28;20504;-80
2023/07/22 01:40:11;;;;;;;3.92;3.47;;;20.70;79.20;;;;;;5113547;28;20016;-80
2023/07/22 01:42:41;;;;;;;5.70;4.65;;;20.70;79.80;;;;;;5095614;28;20030;-81
2023/07/22 01:45:08;;;;;;;4.85;3.40;;;20.70;79.20;;;;;;5114746;28;20505;-81
2023/07/22 01:47:35;;;;;;;5.18;4.05;;;20.60;79.20;;;;;;5099037;28;20070;-81
2023/07/22 01:50:04;;;;;;;5.85;3.63;;;20.70;79.30;;;;;;5117179;28;20023;-80
2023/07/22 01:52:30;;;;;;;5.38;4.35;;;20.60;79.40;;;;;;5117194;28;20027;-80
2023/07/22 01:54:55;;;;;;;5.65;4.60;;;20.60;79.40;;;;;;5117417;28;20391;-80
2023/07/22 01:57:21;;;;;;;5.60;4.05;;;20.60;79.60;;;;;;5117392;28;20027;-81
2023/07/22 01:59:47;;;;;;;6.40;4.05;;;20.50;79.60;;;;;;5117133;28;20420;-80
2023/07/22 02:02:13;;;;;;;5.05;4.53;;;20.50;79.70;;;;;;5117179;28;20479;-80
2023/07/22 02:04:39;;;;;;;4.88;4.38;;;20.50;79.80;;;;;;5117432;28;20035;-80
2023/07/22 02:07:05;;;;;;;4.43;3.53;;;20.50;79.80;;;;;;5116895;28;20415;-81
2023/07/22 02:09:32;;;;;;;5.13;3.92;;;20.50;79.90;;;;;;5117111;28;20027;-81
2023/07/22 02:11:58;;;;;;;4.28;3.30;;;20.50;80.00;;;;;;5116787;28;20460;-81
2023/07/22 02:14:24;;;;;;;5.65;4.47;;;20.50;80.10;;;;;;5098413;28;20039;-79
2023/07/22 02:16:50;;;;;;;5.13;4.32;;;20.50;80.10;;;;;;5098290;28;20040;-80
2023/07/22 02:19:16;;;;;;;4.25;3.85;;;20.50;80.10;;;;;;5097746;28;20032;-81
2023/07/22 02:21:42;;;;;;;6.30;4.70;;;20.50;80.30;;;;;;5116012;28;20110;-81
2023/07/22 02:24:09;;;;;;;7.75;5.80;;;20.50;80.30;;;;;;5116405;28;20039;-81
2023/07/22 02:26:35;;;;;;;4.85;4.30;;;20.40;80.30;;;;;;5097796;28;20408;-81
2023/07/22 02:29:00;;;;;;;6.15;5.03;;;20.40;80.40;;;;;;5116026;28;20058;-80
2023/07/22 02:31:26;;;;;;;4.72;4.25;;;20.40;80.50;;;;;;5097770;28;20490;-81
2023/07/22 02:33:51;;;;;;;5.18;3.95;;;20.40;80.40;;;;;;5116516;28;20495;-80
2023/07/22 02:36:17;;;;;;;5.50;4.43;;;20.50;80.50;;;;;;5097953;28;20384;-80
2023/07/22 02:38:43;;;;;;;4.53;4.03;;;20.40;80.30;;;;;;5116296;28;20100;-80
2023/07/22 02:41:08;;;;;;;5.00;4.50;;;20.40;80.40;;;;;;5116212;28;20024;-80
2023/07/22 02:43:35;;;;;;;7.43;5.05;;;20.40;80.40;;;;;;5097947;28;20024;-81
2023/07/22 02:46:07;;;;;;;6.22;4.85;;;20.40;80.50;;;;;;5115612;28;20050;-81
2023/07/22 02:48:33;;;;;;;4.60;4.05;;;20.40;80.50;;;;;;5115898;28;20047;-82
2023/07/22 02:51:10;;;;;;;5.88;4.28;;;20.30;80.60;;;;;;5097275;28;20063;-82
2023/07/22 02:53:39;;;;;;;5.68;5.05;;;20.30;80.60;;;;;;5115876;28;20023;-82
2023/07/22 02:56:08;;;;;;;6.70;4.85;;;20.30;80.60;;;;;;5114275;28;20032;-81
2023/07/22 02:58:34;;;;;;;7.47;5.72;;;20.30;80.60;;;;;;5097464;28;20038;-81
2023/07/22 03:01:00;;;;;;;6.78;5.85;;;20.30;80.70;;;;;;5115730;28;20032;-81
2023/07/22 03:03:25;;;;;;;7.40;4.55;;;20.30;80.80;;;;;;5097689;28;20089;-81
2023/07/22 03:05:52;;;;;;;6.35;5.30;;;20.20;80.90;;;;;;5115496;28;20094;-81
2023/07/22 03:08:18;;;;;;;6.80;4.57;;;20.20;81.00;;;;;;5115573;28;20119;-81
2023/07/22 03:10:48;;;;;;;5.82;4.75;;;20.20;81.10;;;;;;5115606;28;20050;-80
2023/07/22 03:13:17;;;;;;;6.30;5.13;;;20.20;81.10;;;;;;5115563;28;20020;-80
2023/07/22 03:15:43;;;;;;;6.18;4.50;;;20.20;81.20;;;;;;5097004;28;20039;-80
2023/07/22 03:18:09;;;;;;;6.57;5.60;;;20.20;81.20;;;;;;5115435;28;20066;-80
2023/07/22 03:20:37;;;;;;;6.00;4.95;;;20.20;81.10;;;;;;5115277;28;20023;-80
2023/07/22 03:23:04;;;;;;;9.88;7.35;;;20.30;81.20;;;;;;5117532;28;20023;-80
2023/07/22 03:25:30;;;;;;;8.23;5.82;;;20.20;81.10;;;;;;5083938;28;20032;-80
2023/07/22 03:27:56;;;;;;;10.55;7.57;;;20.20;81.20;;;;;;5118902;28;20352;-80
2023/07/22 03:30:23;;;;;;;6.40;5.45;;;20.20;81.40;;;;;;5102656;28;20053;-80
2023/07/22 03:32:50;;;;;;;8.52;6.57;;;20.10;81.40;;;;;;5123893;28;20023;-80
2023/07/22 03:35:17;;;;;;;7.18;6.43;;;20.10;81.60;;;;;;5122630;28;20074;-80
2023/07/22 03:37:43;;;;;;;7.10;5.88;;;20.00;81.70;;;;;;5118167;28;20043;-81
2023/07/22 03:40:26;;;;;;;6.07;4.90;;;20.00;81.80;;;;;;5116508;28;20049;-81
2023/07/22 03:42:55;;;;;;;8.20;5.93;;;20.00;81.90;;;;;;5115213;28;20020;-80
2023/07/22 03:45:21;;;;;;;8.23;5.85;;;20.00;81.90;;;;;;5114777;28;20085;-81
2023/07/22 03:47:51;;;;;;;8.55;5.88;;;20.00;81.90;;;;;;5114869;28;20119;-80
2023/07/22 03:50:17;;;;;;;6.15;4.18;;;20.10;82.60;;;;;;5113882;28;20027;-80
2023/07/22 03:52:42;;;;;;;5.95;5.32;;;20.10;81.90;;;;;;5096528;28;20413;-80
2023/07/22 03:55:08;;;;;;;7.15;6.15;;;20.10;81.90;;;;;;5114470;28;20034;-80
2023/07/22 03:57:34;;;;;;;6.90;5.22;;;20.10;81.90;;;;;;5114447;28;20039;-80
2023/07/22 04:00:00;;;;;;;5.00;4.50;;;20.10;81.90;;;;;;5114333;28;20104;-80
2023/07/22 04:02:26;;;;;;;7.45;5.90;;;20.10;81.90;;;;;;5114455;28;20043;-81
2023/07/22 04:04:54;;;;;;;9.98;6.60;;;20.10;81.90;;;;;;5114615;28;20038;-81
2023/07/22 04:07:20;;;;;;;10.35;7.80;;;20.10;82.00;;;;;;5113962;28;20023;-80
2023/07/22 04:09:45;;;;;;;10.50;7.82;;;20.10;82.10;;;;;;5095863;28;20085;-80
2023/07/22 04:12:11;;;;;;;11.35;9.20;;;20.00;82.10;;;;;;5114033;28;20024;-80
2023/07/22 04:14:38;;;;;;;11.68;8.35;;;20.00;82.30;;;;;;5114414;28;20107;-80
2023/07/22 04:17:04;;;;;;;9.50;7.97;;;19.80;82.50;;;;;;5095820;28;20055;-80
2023/07/22 04:19:30;;;;;;;9.45;7.40;;;19.70;82.90;;;;;;5114368;28;20031;-80
2023/07/22 04:21:56;;;;;;;9.93;6.47;;;19.60;83.00;;;;;;5113399;28;20023;-80
2023/07/22 04:24:22;;;;;;;8.77;6.05;;;19.70;83.20;;;;;;5114353;28;20039;-80
2023/07/22 04:26:47;;;;;;;8.52;6.63;;;19.70;83.20;;;;;;5114175;28;20363;-80
2023/07/22 04:29:13;;;;;;;10.07;6.65;;;19.70;83.20;;;;;;5113929;28;20032;-80
2023/07/22 04:31:39;;;;;;;10.75;8.10;;;19.70;83.70;;;;;;5114045;28;20055;-80
2023/07/22 04:34:06;;;;;;;10.50;8.30;;;19.80;83.20;;;;;;5113600;28;20027;-80
2023/07/22 04:36:31;;;;;;;9.43;7.53;;;19.70;83.30;;;;;;5113905;28;20371;-80
2023/07/22 04:38:57;;;;;;;8.30;6.43;;;19.70;83.30;;;;;;5114054;28;20024;-80
2023/07/22 04:41:23;;;;;;;9.75;6.35;;;19.80;83.50;;;;;;5113566;28;20444;-80
2023/07/22 04:43:51;;;;;;;11.85;8.15;;;19.70;83.50;;;;;;5113374;28;20104;-80
2023/07/22 04:46:17;;;;;;;10.45;8.32;;;19.70;83.80;;;;;;5095340;28;20084;-80
2023/07/22 04:48:44;;;;;;;13.60;9.48;;;19.60;83.80;;;;;;5113502;28;20483;-80
2023/07/22 04:51:09;;;;;;;15.70;9.93;;;19.70;83.90;;;;;;5094936;28;20032;-80
2023/07/22 04:53:35;;;;;;;13.45;9.98;;;19.60;83.90;;;;;;5113594;28;20039;-80
2023/07/22 04:56:02;;;;;;;11.95;9.45;;;19.50;83.80;;;;;;5113255;28;20356;-80
2023/07/22 04:58:28;;;;;;;12.35;8.50;;;19.50;84.00;;;;;;5095564;28;20031;-80
2023/07/22 05:00:53;;;;;;;15.18;10.10;;;19.40;84.30;;;;;;5095134;28;20027;-80
2023/07/22 05:03:19;;;;;;;12.30;8.73;;;19.40;84.40;;;;;;5113598;28;20028;-80
2023/07/22 05:05:45;;;;;;;14.20;10.38;;;19.30;84.60;;;;;;5113527;28;20043;-80
2023/07/22 05:08:10;;;;;;;14.85;10.38;;;19.30;85.00;;;;;;5113350;28;20031;-80
2023/07/22 05:10:40;;;;;;;15.13;10.45;;;19.20;85.10;;;;;;5113506;28;20037;-80
2023/07/22 05:13:05;;;;;;;12.45;8.07;;;19.10;85.70;;;;;;5113585;28;20472;-80
2023/07/22 05:15:31;;;;;;;18.85;12.35;;;19.10;85.80;;;;;;5095123;28;20168;-80
2023/07/22 05:17:57;;;;;;;14.00;10.32;;;19.10;86.00;;;;;;5095064;28;20038;-80
2023/07/22 05:20:22;;;;;;;16.90;10.88;;;19.00;86.30;;;;;;5093577;28;20107;-80
2023/07/22 05:22:49;;;;;;;20.10;12.20;;;18.90;86.40;;;;;;5113547;28;20023;-80
2023/07/22 05:25:15;;;;;;;15.18;10.23;;;18.90;86.70;;;;;;5113004;28;20071;-80
2023/07/22 05:27:40;;;;;;;17.48;11.93;;;18.90;86.80;;;;;;5112879;28;20054;-80
2023/07/22 05:30:07;;;;;;;16.08;10.70;;;18.80;87.20;;;;;;5114270;28;20454;-80
2023/07/22 05:32:32;;;;;;;15.10;10.65;;;18.70;87.40;;;;;;5114999;28;20118;-79
2023/07/22 05:34:58;;;;;;;16.05;11.65;;;18.70;87.50;;;;;;5117565;28;20424;-80
2023/07/22 05:37:24;;;;;;;15.25;10.90;;;18.70;87.80;;;;;;5096349;28;20027;-80
2023/07/22 05:39:50;;;;;;;13.50;9.48;;;18.70;88.00;;;;;;5114895;28;20037;-80
2023/07/22 05:42:17;;;;;;;20.85;13.25;;;18.70;88.10;;;;;;5112933;28;20216;-80
2023/07/22 05:44:43;;;;;;;24.80;14.80;;;18.70;88.10;;;;;;5113021;28;20089;-79
2023/07/22 05:47:09;;;;;;;17.58;12.15;;;18.70;88.30;;;;;;5113150;28;20451;-80
2023/07/22 05:49:34;;;;;;;22.13;14.82;;;18.70;88.20;;;;;;5113274;28;20131;-80
2023/07/22 05:52:00;;;;;;;23.38;15.27;;;18.70;88.40;;;;;;5112543;28;20028;-80
2023/07/22 05:54:26;;;;;;;14.98;11.10;;;18.70;88.70;;;;;;5095005;28;20411;-80
2023/07/22 05:56:51;;;;;;;14.70;10.27;;;18.70;88.40;;;;;;5077367;28;20028;-80
2023/07/22 05:59:17;;;;;;;22.08;14.30;;;18.70;88.60;;;;;;5094943;28;20414;-80
2023/07/22 06:01:43;;;;;;;17.23;11.55;;;18.60;88.90;;;;;;5094160;28;20028;-80
2023/07/22 06:04:09;;;;;;;16.20;11.10;;;18.60;88.90;;;;;;5112589;28;20126;-80
2023/07/22 06:06:35;;;;;;;16.67;11.50;;;18.70;89.00;;;;;;5112673;28;20415;-80
2023/07/22 06:09:01;;;;;;;15.70;11.57;;;18.70;89.00;;;;;;5112350;28;20101;-80
2023/07/22 06:11:26;;;;;;;19.08;13.73;;;18.80;89.20;;;;;;5077806;28;20031;-80
2023/07/22 06:13:52;;;;;;;21.75;13.55;;;18.90;89.20;;;;;;5112769;28;20036;-79
2023/07/22 06:16:17;;;;;;;21.35;13.98;;;18.90;88.90;;;;;;5094814;28;20035;-80
2023/07/22 06:18:43;;;;;;;21.98;14.80;;;19.00;88.70;;;;;;5077764;28;20107;-80
2023/07/22 06:21:09;;;;;;;26.73;15.07;;;18.90;88.60;;;;;;5094310;28;20023;-79
2023/07/22 06:23:34;;;;;;;24.88;14.93;;;18.80;88.90;;;;;;5077561;28;20032;-80
2023/07/22 06:26:00;;;;;;;19.70;12.25;;;18.80;89.20;;;;;;5094421;28;20036;-80
2023/07/22 06:28:26;;;;;;;20.50;13.20;;;18.80;89.50;;;;;;5113117;28;20032;-78
2023/07/22 06:30:52;;;;;;;19.95;14.02;;;18.70;89.60;;;;;;5096511;28;20100;-79
2023/07/22 06:33:17;;;;;;;26.15;14.82;;;18.80;89.80;;;;;;5065046;28;20051;-79
2023/07/22 06:35:43;;;;;;;25.92;16.38;;;18.80;89.80;;;;;;5117191;28;20495;-80
2023/07/22 06:38:09;;;;;;;24.77;15.07;;;18.80;90.00;;;;;;5100331;28;20035;-79
2023/07/22 06:40:34;;;;;;;18.42;12.85;;;18.70;90.00;;;;;;5115971;28;20032;-80
2023/07/22 06:43:00;;;;;;;23.52;15.10;;;18.70;90.20;;;;;;5115915;28;20464;-80
2023/07/22 06:45:25;;;;;;;25.52;15.25;;;18.70;90.30;;;;;;5097743;28;20043;-79
2023/07/22 06:47:51;;;;;;;21.67;12.70;;;18.70;90.40;;;;;;5115790;28;20375;-79
2023/07/22 06:50:17;;;;;;;24.38;15.35;;;18.70;90.40;;;;;;5115405;28;20036;-79
2023/07/22 06:52:43;;;;;;;20.08;12.18;;;18.70;90.40;;;;;;5115866;28;20119;-80
2023/07/22 06:55:08;;;;;;;26.75;16.13;;;18.60;90.30;;;;;;5097760;28;20422;-79
2023/07/22 06:57:34;;;;;;;24.08;15.13;;;18.70;90.60;;;;;;5115848;28;20066;-80
2023/07/22 07:00:00;;;;;;;21.23;14.30;;;18.70;90.50;;;;;;5097899;28;20043;-81
2023/07/22 07:02:26;;;;;;;20.85;14.10;;;18.70;90.50;;;;;;5098071;28;20027;-80
2023/07/22 07:04:52;;;;;;;25.23;15.35;;;18.80;90.40;;;;;;5098292;28;20038;-80
2023/07/22 07:07:17;;;;;;;24.75;15.00;;;18.80;90.60;;;;;;5097998;28;20110;-80
2023/07/22 07:09:43;;;;;;;18.15;13.27;;;18.80;90.50;;;;;;5116220;28;20413;-80
2023/07/22 07:12:09;;;;;;;20.27;13.85;;;18.90;90.40;;;;;;5098247;28;20035;-80
2023/07/22 07:14:35;;;;;;;18.80;12.32;;;18.90;90.40;;;;;;5097827;28;20486;-80
2023/07/22 07:17:01;;;;;;;16.67;12.10;;;19.00;90.40;;;;;;5116023;28;20032;-79
2023/07/22 07:19:28;;;;;;;20.75;13.27;;;19.00;90.40;;;;;;5116330;28;20019;-79
2023/07/22 07:21:54;;;;;;;18.20;12.73;;;19.00;90.50;;;;;;5115178;28;20432;-79
2023/07/22 07:24:19;;;;;;;16.73;12.27;;;19.10;90.50;;;;;;5115563;28;20028;-79
2023/07/22 07:26:45;;;;;;;16.60;11.57;;;19.20;90.50;;;;;;5115583;28;20032;-79
2023/07/22 07:29:11;;;;;;;22.13;13.68;;;19.20;90.30;;;;;;5115797;28;20031;-79
2023/07/22 07:31:38;;;;;;;18.67;11.68;;;19.30;90.30;;;;;;5097156;28;20112;-79
2023/07/22 07:34:04;;;;;;;21.02;12.75;;;19.30;90.30;;;;;;5097276;28;20035;-79
2023/07/22 07:36:29;;;;;;;20.70;12.02;;;19.30;90.30;;;;;;5097014;28;20080;-79
2023/07/22 07:38:55;;;;;;;19.63;12.10;;;19.40;90.40;;;;;;5096799;28;20038;-79
2023/07/22 07:41:21;;;;;;;13.32;10.10;;;19.50;90.40;;;;;;5097193;28;20024;-79
2023/07/22 07:43:47;;;;;;;12.77;9.18;;;19.60;90.20;;;;;;5115185;28;20024;-79
2023/07/22 07:46:28;;;;;;;20.95;12.32;;;19.70;89.90;;;;;;5115580;28;20097;-79
2023/07/22 07:49:00;;;;;;;14.98;9.60;;;19.70;89.70;;;;;;5114937;28;20047;-80
2023/07/22 07:51:29;;;;;;;16.77;10.60;;;19.70;89.60;;;;;;5114731;28;20111;-79
2023/07/22 07:53:58;;;;;;;20.52;11.73;;;19.80;89.50;;;;;;5097540;28;20031;-79
2023/07/22 07:56:24;;;;;;;17.13;11.32;;;19.90;89.40;;;;;;5096475;28;20126;-79
2023/07/22 07:58:52;;;;;;;15.85;10.45;;;20.10;89.50;;;;;;5114389;28;20024;-79
2023/07/22 08:01:18;;;;;;;14.60;9.65;;;20.20;89.10;;;;;;5114920;28;20024;-80
2023/07/22 08:03:44;;;;;;;15.77;10.48;;;20.40;88.90;;;;;;5114295;28;20034;-80
2023/07/22 08:06:11;;;;;;;16.85;10.30;;;20.40;89.00;;;;;;5096280;28;20519;-80
2023/07/22 08:08:37;;;;;;;14.70;9.35;;;20.40;87.40;;;;;;5114554;28;20482;-80
2023/07/22 08:11:10;;;;;;;16.52;10.13;;;20.40;86.90;;;;;;5114479;28;20035;-79
2023/07/22 08:13:36;;;;;;;;;;;20.30;86.50;;;;;;5114895;28;20027;-79
2023/07/22 08:16:03;;;;;;;12.52;8.63;;;20.30;86.70;;;;;;5114472;28;19903;-80
2023/07/22 08:18:29;;;;;;;11.52;8.25;;;20.20;86.90;;;;;;5114425;28;20049;-79
2023/07/22 08:20:55;;;;;;;13.52;8.68;;;20.20;87.20;;;;;;5113708;28;20035;-80
2023/07/22 08:23:22;;;;;;;13.68;8.65;;;20.30;87.00;;;;;;5114415;28;20038;-79
2023/07/22 08:25:48;;;;;;;14.93;8.52;;;20.30;86.90;;;;;;5114772;28;20085;-80
2023/07/22 08:28:14;;;;;;;9.82;6.57;;;20.30;86.70;;;;;;5114183;28;20059;-80
2023/07/22 08:30:40;;;;;;;12.27;8.32;;;20.40;87.20;;;;;;5114147;28;20529;-79
2023/07/22 08:33:11;;;;;;;10.30;7.55;;;20.40;87.70;;;;;;5114063;28;20095;-78
2023/07/22 08:35:38;;;;;;;13.65;8.93;;;20.40;87.40;;;;;;5114480;28;20035;-79
2023/07/22 08:38:04;;;;;;;8.80;6.45;;;20.40;86.50;;;;;;5095692;28;20055;-79
2023/07/22 08:40:37;;;;;;;13.48;7.90;;;20.40;86.10;;;;;;5078725;28;20097;-79
2023/07/22 08:43:04;;;;;;;17.20;9.38;;;20.50;86.70;;;;;;5113710;28;20034;-80
2023/07/22 08:45:36;;;;;;;13.57;8.20;;;20.60;87.50;;;;;;5095384;28;20093;-79
2023/07/22 08:48:12;;;;;;;12.23;8.80;;;20.50;86.70;;;;;;5113925;28;20387;-79
2023/07/22 08:50:40;;;;;;;14.40;9.10;;;20.50;86.00;;;;;;5113428;28;20034;-79
2023/07/22 08:53:06;;;;;;;14.13;7.90;;;20.50;84.90;;;;;;5113605;28;20035;-79
2023/07/22 08:55:32;;;;;;;12.85;8.60;;;20.50;84.50;;;;;;5113415;28;20032;-79
2023/07/22 08:57:58;;;;;;;11.93;7.25;;;20.50;85.10;;;;;;5095361;28;20114;-79
2023/07/22 09:00:25;;;;;;;11.93;8.45;;;20.50;85.50;;;;;;5113501;28;20036;-79
2023/07/22 09:02:51;;;;;;;13.43;9.55;;;20.50;86.20;;;;;;5113532;28;20032;-79
2023/07/22 09:05:17;;;;;;;14.38;9.93;;;20.50;85.90;;;;;;5113386;28;20036;-79
2023/07/22 09:07:44;;;;;;;14.85;10.02;;;20.50;85.50;;;;;;5113573;28;20111;-79
2023/07/22 09:10:10;;;;;;;11.82;7.90;;;20.40;85.90;;;;;;5095286;28;20035;-79
2023/07/22 09:12:39;;;;;;;11.43;8.45;;;20.50;85.70;;;;;;5113233;28;20168;-79
2023/07/22 09:15:15;;;;;;;15.20;8.82;;;20.50;85.00;;;;;;5095549;28;20023;-79
2023/07/22 09:17:41;;;;;;;13.27;7.70;;;20.50;84.80;;;;;;5078288;28;20023;-79
2023/07/22 09:20:07;;;;;;;10.90;7.47;;;20.50;85.00;;;;;;5113136;28;20066;-80
2023/07/22 09:22:33;;;;;;;13.05;7.35;;;20.50;85.30;;;;;;5113074;28;20376;-79
2023/07/22 09:25:14;;;;;;;9.82;6.78;;;20.50;85.20;;;;;;5095058;28;20056;-79
2023/07/22 09:27:39;;;;;;;12.40;7.38;;;20.50;84.90;;;;;;5113590;28;20030;-79
2023/07/22 09:30:19;;;;;;;10.65;7.22;;;20.60;84.90;;;;;;5095230;28;20071;-80
2023/07/22 09:32:45;;;;;;;11.73;7.30;;;20.50;84.40;;;;;;5113444;28;20028;-81
2023/07/22 09:35:11;;;;;;;8.32;6.28;;;20.50;84.30;;;;;;5095361;28;20039;-79
2023/07/22 09:37:38;;;;;;;9.07;5.70;;;20.50;84.00;;;;;;5113195;28;20024;-79
2023/07/22 09:40:17;;;;;;;10.65;5.95;;;20.50;83.10;;;;;;5078686;28;20096;-80
2023/07/22 09:42:51;;;;;;;8.25;5.30;;;20.50;82.20;;;;;;5095377;28;20019;-81
2023/07/22 09:45:18;;;;;;;7.82;4.88;;;20.50;81.80;;;;;;5113505;28;20038;-79
2023/07/22 09:47:49;;;;;;;9.00;5.40;;;20.50;81.90;;;;;;5113298;28;20036;-79
2023/07/22 09:50:22;;;;;;;7.68;5.47;;;20.50;81.90;;;;;;5114633;28;20026;-79
2023/07/22 09:52:53;;;;;;;8.15;5.05;;;20.60;82.50;;;;;;5114043;28;20456;-80
2023/07/22 09:55:28;;;;;;;8.98;5.53;;;20.70;82.10;;;;;;5116437;28;20027;-81
2023/07/22 09:58:02;;;;;;;7.72;4.78;;;20.70;82.00;;;;;;5096457;28;20027;-81
2023/07/22 10:00:33;;;;;;;8.77;5.20;;;20.80;81.80;;;;;;5113922;28;20163;-79
2023/07/22 10:03:00;;;;;;;8.27;5.20;;;20.80;81.70;;;;;;5113406;28;20547;-80
2023/07/22 10:05:28;;;;;;;6.57;4.18;;;20.80;81.40;;;;;;5096440;28;20063;-79
2023/07/22 10:07:58;;;;;;;7.50;4.78;;;20.90;81.60;;;;;;5098837;28;20031;-81
2023/07/22 10:10:30;;;;;;;8.50;4.95;;;20.80;79.90;;;;;;5116998;28;20153;-82
2023/07/22 10:12:57;;;;;;;12.37;5.07;;;20.70;80.60;;;;;;5116751;28;20055;-79
2023/07/22 10:15:25;;;;;;;8.35;4.30;;;20.70;80.60;;;;;;5117159;28;20273;-79
2023/07/22 10:17:53;;;;;;;7.57;4.03;;;20.70;80.40;;;;;;5116982;28;20243;-81
2023/07/22 10:20:19;;;;;;;8.82;4.75;;;20.70;81.30;;;;;;5117161;28;20035;-79
2023/07/22 10:22:47;;;;;;;8.73;4.30;;;20.70;81.60;;;;;;5116371;28;20139;-79
2023/07/22 10:25:18;;;;;;;9.10;4.70;;;20.70;81.30;;;;;;5116578;28;20112;-80
2023/07/22 10:27:44;;;;;;;7.70;4.25;;;20.70;82.30;;;;;;5116491;28;20039;-79
2023/07/22 10:30:12;;;;;;;8.07;4.30;;;20.80;82.70;;;;;;5116674;28;20028;-79
2023/07/22 10:32:43;;;;;;;8.15;4.75;;;20.80;82.50;;;;;;5116740;28;20055;-79
2023/07/22 10:35:30;;;;;;;8.70;4.43;;;20.90;82.30;;;;;;5116929;28;20100;-79
2023/07/22 10:38:06;;;;;;;8.10;5.03;;;21.00;81.90;;;;;;5099126;28;20424;-79
2023/07/22 10:40:31;;;;;;;6.82;4.28;;;21.00;81.00;;;;;;5117363;28;20027;-79
2023/07/22 10:43:04;;;;;;;7.00;3.85;;;21.10;81.40;;;;;;5116799;28;20425;-79
2023/07/22 10:45:39;;;;;;;6.07;3.95;;;21.10;80.70;;;;;;5116366;28;20114;-79
2023/07/22 10:48:10;;;;;;;6.55;3.50;;;21.20;81.10;;;;;;5115998;28;20059;-79
2023/07/22 10:50:52;;;;;;;8.02;4.40;;;21.20;81.00;;;;;;5115836;28;20042;-78
2023/07/22 10:53:46;;;;;;;7.22;3.97;;;21.20;78.70;;;;;;5097786;28;20034;-80
2023/07/22 10:56:27;;;;;;;8.77;4.43;;;21.20;78.40;;;;;;5106267;28;20080;-79
2023/07/22 10:58:53;;;;;;;6.43;3.97;;;21.10;79.10;;;;;;5116064;28;20023;-79
2023/07/22 11:01:28;;;;;;;7.15;4.45;;;21.00;80.00;;;;;;5097423;28;20119;-79
2023/07/22 11:04:10;;;;;;;5.82;3.03;;;21.10;79.90;;;;;;5116081;28;20416;-79
2023/07/22 11:06:40;;;;;;;7.90;3.35;;;21.10;79.50;;;;;;5115993;28;20042;-76
2023/07/22 11:09:06;;;;;;;5.60;3.40;;;21.00;79.00;;;;;;5115412;28;20070;-78
2023/07/22 11:11:40;;;;;;;8.57;3.45;;;21.00;79.60;;;;;;5097974;28;20547;-78
2023/07/22 11:14:37;;;;;;;6.78;2.83;;;20.90;79.20;;;;;;5115673;28;20031;-79
2023/07/22 11:17:05;;;;;;;8.30;3.08;;;20.80;77.60;;;;;;5114177;28;20063;-79
2023/07/22 11:19:32;;;;;;;6.68;3.25;;;20.80;78.50;;;;;;5115414;28;20024;-78
2023/07/22 11:21:58;;;;;;;7.22;3.22;;;20.70;78.60;;;;;;5115130;28;20077;-78
2023/07/22 11:24:24;;;;;;;8.80;3.38;;;20.70;79.20;;;;;;5097195;28;20027;-79
2023/07/22 11:26:51;;;;;;;4.72;2.40;;;20.70;79.40;;;;;;5080230;28;20031;-78
2023/07/22 11:29:17;;;;;;;5.05;3.08;;;20.70;79.60;;;;;;5115249;28;20020;-79
2023/07/22 11:31:46;;;;;;;9.00;3.05;;;20.70;79.60;;;;;;5097164;28;20024;-79
2023/07/22 11:34:13;;;;;;;4.78;2.72;;;20.70;79.20;;;;;;5115531;28;20027;-78
2023/07/22 11:36:39;;;;;;;5.47;3.13;;;20.60;79.40;;;;;;5115357;28;20031;-78
2023/07/22 11:39:07;;;;;;;5.60;2.90;;;20.60;79.80;;;;;;5115308;28;20040;-78
2023/07/22 11:41:34;;;;;;;5.43;2.58;;;20.50;79.80;;;;;;5115228;28;20056;-78
2023/07/22 11:44:00;;;;;;;3.35;2.25;;;20.50;80.20;;;;;;5115453;28;20058;-78
2023/07/22 11:46:27;;;;;;;4.32;2.50;;;20.50;80.70;;;;;;5115094;28;20086;-79
2023/07/22 11:48:53;;;;;;;6.10;2.80;;;20.60;80.90;;;;;;5114943;28;20065;-79
2023/07/22 11:51:21;;;;;;;4.82;2.63;;;20.70;80.90;;;;;;5096271;28;20092;-79
2023/07/22 11:53:51;;;;;;;5.38;2.80;;;20.70;80.90;;;;;;5097302;28;20386;-78
2023/07/22 11:56:28;;;;;;;6.60;2.28;;;20.80;80.80;;;;;;5117888;28;20096;-78
2023/07/22 11:58:57;;;;;;;5.07;2.38;;;20.80;80.60;;;;;;5097816;28;20023;-79
2023/07/22 12:01:23;;;;;;;4.07;2.15;;;20.80;80.10;;;;;;5116458;28;20034;-80
2023/07/22 12:03:55;;;;;;;7.40;1.90;;;20.70;79.50;;;;;;5080617;28;20035;-80
2023/07/22 12:06:24;;;;;;;4.35;1.83;;;20.70;79.90;;;;;;5115354;28;20096;-79
2023/07/22 12:08:51;;;;;;;4.72;1.77;;;20.60;80.30;;;;;;5096510;28;20030;-80
2023/07/22 12:11:22;;;;;;;4.45;2.00;;;20.60;80.30;;;;;;5114726;28;20036;-80
2023/07/22 12:14:10;;;;;;;4.38;2.05;;;20.60;80.20;;;;;;5114586;28;20028;-80
2023/07/22 12:16:37;;;;;;;4.03;1.70;;;20.70;79.20;;;;;;5114077;28;20061;-80
2023/07/22 12:19:04;;;;;;;4.85;2.05;;;20.90;79.80;;;;;;5114496;28;20047;-80
2023/07/22 12:21:29;;;;;;;5.88;1.80;;;21.00;79.60;;;;;;5114208;28;20027;-80
2023/07/22 12:23:55;;;;;;;3.53;1.60;;;21.20;79.90;;;;;;5096323;28;20034;-80
2023/07/22 12:26:21;;;;;;;3.83;2.03;;;21.30;79.70;;;;;;5114356;28;20128;-80
2023/07/22 12:28:46;;;;;;;2.78;1.45;;;21.40;79.00;;;;;;5114559;28;20043;-79
2023/07/22 12:31:13;;;;;;;2.78;1.67;;;21.40;78.70;;;;;;5114931;28;20061;-79
2023/07/22 12:33:38;;;;;;;5.55;1.50;;;21.40;79.30;;;;;;5096460;28;20028;-80
2023/07/22 12:36:04;;;;;;;4.53;1.27;;;21.30;77.80;;;;;;5096443;28;20030;-79
2023/07/22 12:38:31;;;;;;;2.38;1.20;;;21.20;76.40;;;;;;5096221;28;20043;-78
2023/07/22 12:40:56;;;;;;;4.53;1.27;;;21.00;76.60;;;;;;5115159;28;20023;-80
2023/07/22 12:43:22;;;;;;;6.57;1.50;;;21.00;76.90;;;;;;5115106;28;20388;-80